createdAt,value
2019-04-03T00:00:58.102Z,312.03
2019-04-03T00:01:58.105Z,311.86
2019-04-03T00:02:58.068Z,312.48
2019-04-03T00:03:58.053Z,311.24
2019-04-03T00:04:58.093Z,312.41
2019-04-03T00:05:58.049Z,311.39
2019-04-03T00:06:58.038Z,311.59
2019-04-03T00:07:58.002Z,311.88
2019-04-03T00:08:57.990Z,312.34
2019-04-03T00:09:57.992Z,311.63
2019-04-03T00:10:58.093Z,312.30
2019-04-03T00:11:58.000Z,311.94
2019-04-03T00:12:57.948Z,311.68
2019-04-03T00:13:57.940Z,311.59
2019-04-03T00:14:57.940Z,311.58
2019-04-03T00:15:58.119Z,311.14
2019-04-03T00:16:57.904Z,311.85
2019-04-03T00:17:57.923Z,310.92
2019-04-03T00:18:57.987Z,311.44
2019-04-03T00:19:57.876Z,311.41
2019-04-03T00:20:57.870Z,311.59
2019-04-03T00:21:57.858Z,311.72
2019-04-03T00:22:57.859Z,312.03
2019-04-03T00:23:57.836Z,311.22
2019-04-03T00:24:57.812Z,311.51
2019-04-03T00:25:57.806Z,311.54
2019-04-03T00:26:57.794Z,311.47
2019-04-03T00:27:57.801Z,311.50
2019-04-03T00:28:57.791Z,311.25
2019-04-03T00:29:57.779Z,311.09
2019-04-03T00:30:57.760Z,311.93
2019-04-03T00:31:57.734Z,311.52
2019-04-03T00:32:57.756Z,311.60
2019-04-03T00:33:57.724Z,311.92
2019-04-03T00:34:57.709Z,311.37
2019-04-03T00:35:57.724Z,311.50
2019-04-03T00:36:57.687Z,311.31
2019-04-03T00:37:57.689Z,311.38
2019-04-03T00:38:57.682Z,311.17
2019-04-03T00:39:57.662Z,311.25
2019-04-03T00:40:57.637Z,311.52
2019-04-03T00:41:57.631Z,311.39
2019-04-03T00:42:57.653Z,311.08
2019-04-03T00:43:57.618Z,311.14
2019-04-03T00:44:57.602Z,311.21
2019-04-03T00:45:57.607Z,311.64
2019-04-03T00:46:57.577Z,311.27
2019-04-03T00:47:57.674Z,311.71
2019-04-03T00:48:57.587Z,311.77
2019-04-03T00:49:57.553Z,310.71
2019-04-03T00:50:57.677Z,311.55
2019-04-03T00:51:58.073Z,311.70
2019-04-03T00:52:58.019Z,311.84
2019-04-03T00:53:58.111Z,311.55
2019-04-03T00:54:57.527Z,311.36
2019-04-03T00:55:57.474Z,311.07
2019-04-03T00:56:57.471Z,311.08
2019-04-03T00:57:57.490Z,311.44
2019-04-03T00:58:57.444Z,311.11
2019-04-03T00:59:57.421Z,311.07
2019-04-03T01:00:57.417Z,311.08
2019-04-03T01:01:57.604Z,311.38
2019-04-03T01:02:58.866Z,311.41
2019-04-03T01:03:58.808Z,311.85
2019-04-03T01:04:58.483Z,312.22
2019-04-03T01:05:58.350Z,311.21
2019-04-03T01:06:58.630Z,311.41
2019-04-03T01:07:59.213Z,311.80
2019-04-03T01:08:59.025Z,311.34
2019-04-03T01:09:57.804Z,311.35
2019-04-03T01:10:57.308Z,311.29
2019-04-03T01:11:57.295Z,311.85
2019-04-03T01:12:57.299Z,311.57
2019-04-03T01:13:57.293Z,311.11
2019-04-03T01:14:57.260Z,311.52
2019-04-03T01:15:57.249Z,311.40
2019-04-03T01:16:57.244Z,311.55
2019-04-03T01:17:57.228Z,311.61
2019-04-03T01:18:57.235Z,311.88
2019-04-03T01:19:57.205Z,311.50
2019-04-03T01:20:57.208Z,312.05
2019-04-03T01:21:57.187Z,311.38
2019-04-03T01:22:57.166Z,311.53
2019-04-03T01:23:57.196Z,311.64
2019-04-03T01:24:57.259Z,311.25
2019-04-03T01:25:57.147Z,311.97
2019-04-03T01:26:57.128Z,311.73
2019-04-03T01:27:57.145Z,312.21
2019-04-03T01:28:57.128Z,311.82
2019-04-03T01:29:57.105Z,311.73
2019-04-03T01:30:57.087Z,311.89
2019-04-03T01:31:57.079Z,311.95
2019-04-03T01:32:57.069Z,311.55
2019-04-03T01:33:57.063Z,311.69
2019-04-03T01:34:57.040Z,312.16
2019-04-03T01:35:57.020Z,312.12
2019-04-03T01:36:57.021Z,312.01
2019-04-03T01:37:57.014Z,312.05
2019-04-03T01:38:57.031Z,312.04
2019-04-03T01:39:56.986Z,312.00
2019-04-03T01:40:56.974Z,312.60
2019-04-03T01:41:56.956Z,312.30
2019-04-03T01:42:56.989Z,312.34
2019-04-03T01:43:56.957Z,312.55
2019-04-03T01:44:56.939Z,312.45
2019-04-03T01:45:57.325Z,312.57
2019-04-03T01:46:57.684Z,313.00
2019-04-03T01:47:58.212Z,312.61
2019-04-03T01:48:58.572Z,312.78
2019-04-03T01:49:58.608Z,312.82
2019-04-03T01:50:59.217Z,312.58
2019-04-03T01:51:56.854Z,313.26
2019-04-03T01:52:56.873Z,313.31
2019-04-03T01:53:56.830Z,313.24
2019-04-03T01:54:56.835Z,313.06
2019-04-03T01:55:56.801Z,312.85
2019-04-03T01:56:56.897Z,314.21
2019-04-03T01:57:56.781Z,314.40
2019-04-03T01:58:56.775Z,314.08
2019-04-03T01:59:56.780Z,313.68
2019-04-03T02:00:56.762Z,314.29
2019-04-03T02:01:56.743Z,314.76
2019-04-03T02:02:56.867Z,314.51
2019-04-03T02:03:56.833Z,314.24
2019-04-03T02:04:56.721Z,313.77
2019-04-03T02:05:56.860Z,314.14
2019-04-03T02:06:56.692Z,314.42
2019-04-03T02:07:56.668Z,314.55
2019-04-03T02:08:56.780Z,314.27
2019-04-03T02:09:56.672Z,314.47
2019-04-03T02:10:56.642Z,314.58
2019-04-03T02:11:56.625Z,314.05
2019-04-03T02:12:56.619Z,314.36
2019-04-03T02:13:56.625Z,313.87
2019-04-03T02:14:56.611Z,313.20
2019-04-03T02:15:56.583Z,313.23
2019-04-03T02:16:56.585Z,313.26
2019-04-03T02:17:56.560Z,313.39
2019-04-03T02:18:56.558Z,313.67
2019-04-03T02:19:56.997Z,313.79
2019-04-03T02:20:57.676Z,313.16
2019-04-03T02:21:58.207Z,313.24
2019-04-03T02:22:59.652Z,313.07
2019-04-03T02:23:56.494Z,312.94
2019-04-03T02:24:56.666Z,312.97
2019-04-03T02:25:56.471Z,313.18
2019-04-03T02:26:56.461Z,312.69
2019-04-03T02:27:56.445Z,312.90
2019-04-03T02:28:56.456Z,313.17
2019-04-03T02:29:56.478Z,313.33
2019-04-03T02:30:56.425Z,313.83
2019-04-03T02:31:56.404Z,313.37
2019-04-03T02:32:57.266Z,313.87
2019-04-03T02:33:56.403Z,313.63
2019-04-03T02:34:56.380Z,312.80
2019-04-03T02:35:56.546Z,312.94
2019-04-03T02:36:56.560Z,312.36
2019-04-03T02:37:56.334Z,312.35
2019-04-03T02:38:56.334Z,312.70
2019-04-03T02:39:59.067Z,312.83
2019-04-03T02:40:56.328Z,312.46
2019-04-03T02:41:56.356Z,313.71
2019-04-03T02:42:56.281Z,313.49
2019-04-03T02:43:56.275Z,313.55
2019-04-03T02:44:56.366Z,313.23
2019-04-03T02:45:57.242Z,313.67
2019-04-03T02:46:59.451Z,313.77
2019-04-03T02:47:56.276Z,314.22
2019-04-03T02:48:56.219Z,313.83
2019-04-03T02:49:56.209Z,314.57
2019-04-03T02:50:56.367Z,313.56
2019-04-03T02:51:56.206Z,313.53
2019-04-03T02:52:58.138Z,313.51
2019-04-03T02:53:56.244Z,313.13
2019-04-03T02:54:56.149Z,312.88
2019-04-03T02:55:56.320Z,313.62
2019-04-03T02:56:56.144Z,315.18
2019-04-03T02:57:56.146Z,314.44
2019-04-03T02:58:56.108Z,314.01
2019-04-03T02:59:58.756Z,315.18
2019-04-03T03:00:56.107Z,314.62
2019-04-03T03:01:56.245Z,314.41
2019-04-03T03:02:56.098Z,314.67
2019-04-03T03:03:56.247Z,314.58
2019-04-03T03:04:56.046Z,314.94
2019-04-03T03:05:59.279Z,313.90
2019-04-03T03:06:56.035Z,314.51
2019-04-03T03:07:56.170Z,313.57
2019-04-03T03:08:56.007Z,314.11
2019-04-03T03:09:56.024Z,313.37
2019-04-03T03:10:55.988Z,313.91
2019-04-03T03:11:56.957Z,313.60
2019-04-03T03:12:59.871Z,313.69
2019-04-03T03:13:56.937Z,314.21
2019-04-03T03:14:55.993Z,314.52
2019-04-03T03:15:55.936Z,314.69
2019-04-03T03:16:55.925Z,314.95
2019-04-03T03:17:56.297Z,314.62
2019-04-03T03:18:59.958Z,314.55
2019-04-03T03:19:57.037Z,313.84
2019-04-03T03:20:56.119Z,313.76
2019-04-03T03:21:55.864Z,313.17
2019-04-03T03:22:55.857Z,313.64
2019-04-03T03:23:57.174Z,313.90
2019-04-03T03:24:55.828Z,314.26
2019-04-03T03:25:55.823Z,313.69
2019-04-03T03:26:56.025Z,314.16
2019-04-03T03:27:55.794Z,314.62
2019-04-03T03:28:55.845Z,314.14
2019-04-03T03:29:58.558Z,313.39
2019-04-03T03:31:02.051Z,314.50
2019-04-03T03:32:09.828Z,313.95
2019-04-03T03:33:21.816Z,314.33
2019-04-03T03:34:01.627Z,314.31
2019-04-03T03:35:09.583Z,314.36
2019-04-03T03:35:57.014Z,314.76
2019-04-03T03:37:00.558Z,314.04
2019-04-03T03:37:56.676Z,314.20
2019-04-03T03:38:55.667Z,314.07
2019-04-03T03:39:55.652Z,314.48
2019-04-03T03:40:55.647Z,314.47
2019-04-03T03:41:57.555Z,314.44
2019-04-03T03:42:56.063Z,314.89
2019-04-03T03:43:55.618Z,314.08
2019-04-03T03:44:55.617Z,314.38
2019-04-03T03:45:55.720Z,313.66
2019-04-03T03:46:59.360Z,314.64
2019-04-03T03:47:56.877Z,314.30
2019-04-03T03:48:55.548Z,314.38
2019-04-03T03:49:55.563Z,314.84
2019-04-03T03:50:57.514Z,315.13
2019-04-03T03:51:55.954Z,314.55
2019-04-03T03:52:55.518Z,314.83
2019-04-03T03:53:55.730Z,314.73
2019-04-03T03:54:55.489Z,315.35
2019-04-03T03:55:58.425Z,315.85
2019-04-03T03:56:55.486Z,315.30
2019-04-03T03:57:55.473Z,316.08
2019-04-03T03:58:55.570Z,316.00
2019-04-03T03:59:55.431Z,316.04
2019-04-03T04:00:58.743Z,315.81
2019-04-03T04:01:55.431Z,316.49
2019-04-03T04:02:55.415Z,316.33
2019-04-03T04:03:55.573Z,316.25
2019-04-03T04:04:55.375Z,316.02
2019-04-03T04:05:56.416Z,315.74
2019-04-03T04:06:55.370Z,315.08
2019-04-03T04:07:55.666Z,315.42
2019-04-03T04:08:55.371Z,315.40
2019-04-03T04:09:55.333Z,315.90
2019-04-03T04:10:58.108Z,315.23
2019-04-03T04:11:55.509Z,315.19
2019-04-03T04:12:55.280Z,315.01
2019-04-03T04:13:55.751Z,315.19
2019-04-03T04:14:57.085Z,315.34
2019-04-03T04:15:55.267Z,316.79
2019-04-03T04:16:55.493Z,316.79
2019-04-03T04:17:55.243Z,316.30
2019-04-03T04:18:57.372Z,316.50
2019-04-03T04:19:55.201Z,316.96
2019-04-03T04:20:55.220Z,315.85
2019-04-03T04:21:55.209Z,315.89
2019-04-03T04:22:55.242Z,316.50
2019-04-03T04:23:55.984Z,317.17
2019-04-03T04:24:55.362Z,317.38
2019-04-03T04:25:55.141Z,317.49
2019-04-03T04:26:55.186Z,316.85
2019-04-03T04:27:55.120Z,316.90
2019-04-03T04:28:55.108Z,316.75
2019-04-03T04:29:55.094Z,317.06
2019-04-03T04:30:55.152Z,316.57
2019-04-03T04:31:55.098Z,316.31
2019-04-03T04:32:55.068Z,315.93
2019-04-03T04:33:55.114Z,315.51
2019-04-03T04:34:55.047Z,315.90
2019-04-03T04:35:55.025Z,315.45
2019-04-03T04:36:56.035Z,316.28
2019-04-03T04:37:55.888Z,316.20
2019-04-03T04:38:57.343Z,318.05
2019-04-03T04:39:54.983Z,317.59
2019-04-03T04:40:54.971Z,317.96
2019-04-03T04:41:54.981Z,318.13
2019-04-03T04:42:54.948Z,317.85
2019-04-03T04:43:54.950Z,317.70
2019-04-03T04:44:54.936Z,318.26
2019-04-03T04:45:54.985Z,318.37
2019-04-03T04:46:54.939Z,317.84
2019-04-03T04:47:54.931Z,317.65
2019-04-03T04:48:55.147Z,318.22
2019-04-03T04:49:54.902Z,317.58
2019-04-03T04:50:55.512Z,317.33
2019-04-03T04:51:56.672Z,316.73
2019-04-03T04:52:54.854Z,316.70
2019-04-03T04:53:54.829Z,316.16
2019-04-03T04:54:54.817Z,316.69
2019-04-03T04:55:54.810Z,316.26
2019-04-03T04:56:54.812Z,315.81
2019-04-03T04:57:54.799Z,315.87
2019-04-03T04:58:54.779Z,316.16
2019-04-03T04:59:54.778Z,316.66
2019-04-03T05:00:54.761Z,316.55
2019-04-03T05:01:54.743Z,316.27
2019-04-03T05:02:54.773Z,316.43
2019-04-03T05:03:54.911Z,316.12
2019-04-03T05:04:55.817Z,316.22
2019-04-03T05:05:57.361Z,316.85
2019-04-03T05:06:55.019Z,316.12
2019-04-03T05:07:54.988Z,316.63
2019-04-03T05:08:54.684Z,317.13
2019-04-03T05:09:54.690Z,317.48
2019-04-03T05:10:54.641Z,316.93
2019-04-03T05:11:54.644Z,316.73
2019-04-03T05:12:54.640Z,316.98
2019-04-03T05:13:54.615Z,317.51
2019-04-03T05:14:54.598Z,316.59
2019-04-03T05:15:54.904Z,317.00
2019-04-03T05:16:55.915Z,318.34
2019-04-03T05:17:57.092Z,317.56
2019-04-03T05:18:54.771Z,317.46
2019-04-03T05:19:54.559Z,316.49
2019-04-03T05:20:54.527Z,318.02
2019-04-03T05:21:54.527Z,317.45
2019-04-03T05:22:55.347Z,317.08
2019-04-03T05:23:56.112Z,317.16
2019-04-03T05:24:54.495Z,317.19
2019-04-03T05:25:54.468Z,317.01
2019-04-03T05:26:54.498Z,317.09
2019-04-03T05:27:54.450Z,317.13
2019-04-03T05:28:57.447Z,317.44
2019-04-03T05:29:54.427Z,317.64
2019-04-03T05:30:54.416Z,318.20
2019-04-03T05:31:54.444Z,318.54
2019-04-03T05:32:54.471Z,317.97
2019-04-03T05:33:54.407Z,318.59
2019-04-03T05:34:54.380Z,318.27
2019-04-03T05:35:54.505Z,318.74
2019-04-03T05:36:54.407Z,318.13
2019-04-03T05:37:54.521Z,318.80
2019-04-03T05:38:54.366Z,318.67
2019-04-03T05:39:55.522Z,318.34
2019-04-03T05:40:56.126Z,318.86
2019-04-03T05:41:54.298Z,318.44
2019-04-03T05:42:54.278Z,317.69
2019-04-03T05:43:54.296Z,317.90
2019-04-03T05:44:54.262Z,317.34
2019-04-03T05:45:54.258Z,318.14
2019-04-03T05:46:54.312Z,317.83
2019-04-03T05:47:54.349Z,317.48
2019-04-03T05:48:54.444Z,317.85
2019-04-03T05:49:55.734Z,317.48
2019-04-03T05:50:54.265Z,317.17
2019-04-03T05:51:54.180Z,316.80
2019-04-03T05:52:54.179Z,316.98
2019-04-03T05:53:54.595Z,317.29
2019-04-03T05:54:54.367Z,317.33
2019-04-03T05:55:54.153Z,317.17
2019-04-03T05:56:54.223Z,317.06
2019-04-03T05:57:54.132Z,318.22
2019-04-03T05:58:56.963Z,316.75
2019-04-03T06:00:00.519Z,317.10
2019-04-03T06:01:04.247Z,317.46
2019-04-03T06:01:55.216Z,317.33
2019-04-03T06:02:56.926Z,317.49
2019-04-03T06:03:54.252Z,317.21
2019-04-03T06:04:54.086Z,317.85
2019-04-03T06:05:57.195Z,318.09
2019-04-03T06:06:54.023Z,317.23
2019-04-03T06:07:54.138Z,316.73
2019-04-03T06:08:56.502Z,316.93
2019-04-03T06:09:58.325Z,316.83
2019-04-03T06:10:54.067Z,317.57
2019-04-03T06:11:53.970Z,316.82
2019-04-03T06:12:53.976Z,318.20
2019-04-03T06:13:54.060Z,316.77
2019-04-03T06:14:54.005Z,316.23
2019-04-03T06:15:54.169Z,316.38
2019-04-03T06:16:56.115Z,316.27
2019-04-03T06:17:55.068Z,316.49
2019-04-03T06:18:54.209Z,317.29
2019-04-03T06:19:53.880Z,317.16
2019-04-03T06:20:53.867Z,316.64
2019-04-03T06:21:53.861Z,316.68
2019-04-03T06:22:54.100Z,316.93
2019-04-03T06:23:54.016Z,317.26
2019-04-03T06:24:55.552Z,317.45
2019-04-03T06:25:53.829Z,317.71
2019-04-03T06:26:53.810Z,316.83
2019-04-03T06:27:53.786Z,317.76
2019-04-03T06:28:53.985Z,319.33
2019-04-03T06:29:55.033Z,317.77
2019-04-03T06:30:55.505Z,317.42
2019-04-03T06:31:53.740Z,317.72
2019-04-03T06:32:55.014Z,317.74
2019-04-03T06:33:53.739Z,316.75
2019-04-03T06:34:53.706Z,316.92
2019-04-03T06:35:53.863Z,316.42
2019-04-03T06:36:53.713Z,316.16
2019-04-03T06:37:53.686Z,316.55
2019-04-03T06:38:54.277Z,316.48
2019-04-03T06:39:53.650Z,316.47
2019-04-03T06:40:53.645Z,315.70
2019-04-03T06:41:53.641Z,316.01
2019-04-03T06:42:53.626Z,315.65
2019-04-03T06:43:54.413Z,316.33
2019-04-03T06:44:54.063Z,315.38
2019-04-03T06:45:53.813Z,316.25
2019-04-03T06:46:54.813Z,316.18
2019-04-03T06:47:53.571Z,315.89
2019-04-03T06:48:55.217Z,315.45
2019-04-03T06:49:53.541Z,316.05
2019-04-03T06:50:53.706Z,315.95
2019-04-03T06:51:53.521Z,315.70
2019-04-03T06:52:53.736Z,315.90
2019-04-03T06:53:53.656Z,315.31
2019-04-03T06:54:53.488Z,315.31
2019-04-03T06:55:53.468Z,314.93
2019-04-03T06:56:53.467Z,315.49
2019-04-03T06:57:53.479Z,314.88
2019-04-03T06:58:53.483Z,315.03
2019-04-03T06:59:53.448Z,315.80
2019-04-03T07:00:54.722Z,315.02
2019-04-03T07:01:53.658Z,314.80
2019-04-03T07:02:53.398Z,315.27
2019-04-03T07:03:53.586Z,315.59
2019-04-03T07:04:53.407Z,315.28
2019-04-03T07:05:53.377Z,315.83
2019-04-03T07:06:55.715Z,315.47
2019-04-03T07:07:53.343Z,315.37
2019-04-03T07:08:53.335Z,315.08
2019-04-03T07:09:53.484Z,315.96
2019-04-03T07:10:55.267Z,315.94
2019-04-03T07:11:53.426Z,316.38
2019-04-03T07:12:53.292Z,315.69
2019-04-03T07:13:54.371Z,315.52
2019-04-03T07:14:53.290Z,315.26
2019-04-03T07:15:55.854Z,315.27
2019-04-03T07:16:53.471Z,315.40
2019-04-03T07:17:53.545Z,315.30
2019-04-03T07:18:53.398Z,315.12
2019-04-03T07:19:53.232Z,315.18
2019-04-03T07:20:53.193Z,315.46
2019-04-03T07:21:55.437Z,314.30
2019-04-03T07:22:53.185Z,314.47
2019-04-03T07:23:53.350Z,313.90
2019-04-03T07:24:53.172Z,314.42
2019-04-03T07:25:53.257Z,313.99
2019-04-03T07:26:53.129Z,314.02
2019-04-03T07:27:53.127Z,314.71
2019-04-03T07:28:53.101Z,314.67
2019-04-03T07:29:53.232Z,314.38
2019-04-03T07:30:53.954Z,313.90
2019-04-03T07:31:55.232Z,314.14
2019-04-03T07:32:53.068Z,314.43
2019-04-03T07:33:53.047Z,314.31
2019-04-03T07:34:53.120Z,314.45
2019-04-03T07:35:53.044Z,314.66
2019-04-03T07:36:53.036Z,314.15
2019-04-03T07:37:53.006Z,314.02
2019-04-03T07:38:53.088Z,313.52
2019-04-03T07:39:53.071Z,313.84
2019-04-03T07:40:52.974Z,314.27
2019-04-03T07:41:54.164Z,314.05
2019-04-03T07:42:55.369Z,314.27
2019-04-03T07:43:52.955Z,313.98
2019-04-03T07:44:52.954Z,313.92
2019-04-03T07:45:52.921Z,314.02
2019-04-03T07:46:54.859Z,314.18
2019-04-03T07:47:52.899Z,314.17
2019-04-03T07:48:52.886Z,314.38
2019-04-03T07:49:53.133Z,314.23
2019-04-03T07:50:53.041Z,314.26
2019-04-03T07:51:53.004Z,314.48
2019-04-03T07:52:53.029Z,315.73
2019-04-03T07:53:52.959Z,316.38
2019-04-03T07:54:54.082Z,315.00
2019-04-03T07:55:55.103Z,314.00
2019-04-03T07:56:53.080Z,314.25
2019-04-03T07:57:52.789Z,313.18
2019-04-03T07:58:52.767Z,313.32
2019-04-03T07:59:53.071Z,314.02
2019-04-03T08:00:52.767Z,314.60
2019-04-03T08:01:52.747Z,314.33
2019-04-03T08:02:52.726Z,313.92
2019-04-03T08:03:53.409Z,315.04
2019-04-03T08:04:55.724Z,314.18
2019-04-03T08:05:56.039Z,314.32
2019-04-03T08:06:52.689Z,314.40
2019-04-03T08:07:52.909Z,314.48
2019-04-03T08:09:05.556Z,314.28
2019-04-03T08:09:53.669Z,314.71
2019-04-03T08:10:52.900Z,313.41
2019-04-03T08:11:52.629Z,313.04
2019-04-03T08:12:52.630Z,313.14
2019-04-03T08:13:52.614Z,313.08
2019-04-03T08:14:52.599Z,313.21
2019-04-03T08:15:52.616Z,313.44
2019-04-03T08:16:52.569Z,313.73
2019-04-03T08:17:52.566Z,313.55
2019-04-03T08:18:52.564Z,313.22
2019-04-03T08:19:54.662Z,314.14
2019-04-03T08:20:52.560Z,313.22
2019-04-03T08:21:52.545Z,313.26
2019-04-03T08:22:52.727Z,313.07
2019-04-03T08:23:52.510Z,313.62
2019-04-03T08:24:53.711Z,312.94
2019-04-03T08:25:54.271Z,312.62
2019-04-03T08:26:52.777Z,312.60
2019-04-03T08:27:54.548Z,313.23
2019-04-03T08:28:52.497Z,313.17
2019-04-03T08:29:52.425Z,313.05
2019-04-03T08:30:52.444Z,312.78
2019-04-03T08:31:52.501Z,312.47
2019-04-03T08:32:52.635Z,313.62
2019-04-03T08:33:52.454Z,312.70
2019-04-03T08:34:52.376Z,312.54
2019-04-03T08:35:52.389Z,312.22
2019-04-03T08:36:52.346Z,311.87
2019-04-03T08:37:52.353Z,312.26
2019-04-03T08:38:52.337Z,312.77
2019-04-03T08:39:52.326Z,312.32
2019-04-03T08:40:53.443Z,313.17
2019-04-03T08:41:53.785Z,312.69
2019-04-03T08:42:52.289Z,312.99
2019-04-03T08:43:52.274Z,313.14
2019-04-03T08:44:52.321Z,313.88
2019-04-03T08:45:52.277Z,313.36
2019-04-03T08:46:52.256Z,313.45
2019-04-03T08:47:52.345Z,313.27
2019-04-03T08:48:54.318Z,312.79
2019-04-03T08:49:52.422Z,312.83
2019-04-03T08:50:52.227Z,313.65
2019-04-03T08:51:52.384Z,312.60
2019-04-03T08:52:52.358Z,312.81
2019-04-03T08:53:54.100Z,312.86
2019-04-03T08:54:52.168Z,312.88
2019-04-03T08:55:52.216Z,313.50
2019-04-03T08:56:52.148Z,313.52
2019-04-03T08:57:52.927Z,312.93
2019-04-03T08:58:52.117Z,313.23
2019-04-03T08:59:52.099Z,313.69
2019-04-03T09:00:52.137Z,312.66
2019-04-03T09:01:54.970Z,312.57
2019-04-03T09:02:52.071Z,313.11
2019-04-03T09:03:52.057Z,312.89
2019-04-03T09:04:52.044Z,313.12
2019-04-03T09:05:54.081Z,313.05
2019-04-03T09:06:54.133Z,313.25
2019-04-03T09:07:52.010Z,313.84
2019-04-03T09:08:52.001Z,313.32
2019-04-03T09:09:51.985Z,312.82
2019-04-03T09:10:52.028Z,313.07
2019-04-03T09:11:51.973Z,313.05
2019-04-03T09:12:51.953Z,312.73
2019-04-03T09:13:54.378Z,313.13
2019-04-03T09:14:51.929Z,312.88
2019-04-03T09:15:52.187Z,313.26
2019-04-03T09:16:51.927Z,312.39
2019-04-03T09:17:51.893Z,312.55
2019-04-03T09:18:51.889Z,312.97
2019-04-03T09:19:51.884Z,312.71
2019-04-03T09:20:51.866Z,312.80
2019-04-03T09:21:51.868Z,311.57
2019-04-03T09:22:53.944Z,311.75
2019-04-03T09:23:51.833Z,311.93
2019-04-03T09:24:52.206Z,311.81
2019-04-03T09:25:51.855Z,312.97
2019-04-03T09:26:51.965Z,311.97
2019-04-03T09:27:52.066Z,311.96
2019-04-03T09:28:51.801Z,313.69
2019-04-03T09:29:51.759Z,312.34
2019-04-03T09:30:54.018Z,312.47
2019-04-03T09:31:52.488Z,312.68
2019-04-03T09:32:53.399Z,313.93
2019-04-03T09:33:51.721Z,312.36
2019-04-03T09:34:51.707Z,312.27
2019-04-03T09:35:51.692Z,310.90
2019-04-03T09:36:51.997Z,310.95
2019-04-03T09:37:51.683Z,310.42
2019-04-03T09:38:51.714Z,310.72
2019-04-03T09:39:51.672Z,309.54
2019-04-03T09:40:51.647Z,311.07
2019-04-03T09:41:51.713Z,311.42
2019-04-03T09:42:52.027Z,312.84
2019-04-03T09:43:51.860Z,311.38
2019-04-03T09:44:51.840Z,313.11
2019-04-03T09:45:51.649Z,311.28
2019-04-03T09:46:51.854Z,312.21
2019-04-03T09:47:51.581Z,313.32
2019-04-03T09:48:51.634Z,311.73
2019-04-03T09:49:51.531Z,310.40
2019-04-03T09:50:51.538Z,312.07
2019-04-03T09:51:52.901Z,312.75
2019-04-03T09:52:54.043Z,310.63
2019-04-03T09:53:51.493Z,311.21
2019-04-03T09:54:51.713Z,311.39
2019-04-03T09:55:51.466Z,311.92
2019-04-03T09:56:59.459Z,310.65
2019-04-03T09:57:53.323Z,310.83
2019-04-03T09:58:51.689Z,310.63
2019-04-03T09:59:51.422Z,310.70
2019-04-03T10:00:51.415Z,311.69
2019-04-03T10:01:51.416Z,310.71
2019-04-03T10:02:51.957Z,310.03
2019-04-03T10:03:53.776Z,309.69
2019-04-03T10:04:51.366Z,310.21
2019-04-03T10:05:51.372Z,309.74
2019-04-03T10:06:51.372Z,311.20
2019-04-03T10:07:51.565Z,311.90
2019-04-03T10:08:51.451Z,309.64
2019-04-03T10:09:53.751Z,310.81
2019-04-03T10:10:51.339Z,311.95
2019-04-03T10:11:52.483Z,312.35
2019-04-03T10:12:53.701Z,311.09
2019-04-03T10:13:51.280Z,311.34
2019-04-03T10:14:51.695Z,311.21
2019-04-03T10:15:51.264Z,310.72
2019-04-03T10:16:51.262Z,310.92
2019-04-03T10:17:51.235Z,311.13
2019-04-03T10:18:51.443Z,312.23
2019-04-03T10:19:51.226Z,310.07
2019-04-03T10:20:51.192Z,310.59
2019-04-03T10:21:52.872Z,309.03
2019-04-03T10:22:51.203Z,309.55
2019-04-03T10:23:51.192Z,310.21
2019-04-03T10:24:51.147Z,313.33
2019-04-03T10:25:53.055Z,313.68
2019-04-03T10:26:51.165Z,311.97
2019-04-03T10:27:51.112Z,309.62
2019-04-03T10:28:51.100Z,308.91
2019-04-03T10:29:51.201Z,308.41
2019-04-03T10:30:52.843Z,311.27
2019-04-03T10:31:51.104Z,311.69
2019-04-03T10:32:51.063Z,310.62
2019-04-03T10:33:51.054Z,310.47
2019-04-03T10:34:51.161Z,309.47
2019-04-03T10:35:51.488Z,310.38
2019-04-03T10:36:51.036Z,310.39
2019-04-03T10:37:51.004Z,309.66
2019-04-03T10:38:51.459Z,311.45
2019-04-03T10:39:53.088Z,309.70
2019-04-03T10:40:50.998Z,311.36
2019-04-03T10:41:50.981Z,310.62
2019-04-03T10:42:50.963Z,313.68
2019-04-03T10:43:51.082Z,311.90
2019-04-03T10:44:51.265Z,311.45
2019-04-03T10:45:50.916Z,310.39
2019-04-03T10:46:51.238Z,310.79
2019-04-03T10:47:50.896Z,311.29
2019-04-03T10:48:50.886Z,312.01
2019-04-03T10:49:50.873Z,311.09
2019-04-03T10:50:50.862Z,309.92
2019-04-03T10:51:50.916Z,311.37
2019-04-03T10:52:50.983Z,309.18
2019-04-03T10:53:52.326Z,311.78
2019-04-03T10:54:50.821Z,310.77
2019-04-03T10:55:50.811Z,310.13
2019-04-03T10:56:51.056Z,311.40
2019-04-03T10:57:50.842Z,309.75
2019-04-03T10:58:51.105Z,309.23
2019-04-03T10:59:54.351Z,309.63
2019-04-03T11:00:50.762Z,309.62
2019-04-03T11:01:51.114Z,309.15
2019-04-03T11:02:50.788Z,309.68
2019-04-03T11:03:50.861Z,309.29
2019-04-03T11:04:50.828Z,309.02
2019-04-03T11:05:50.700Z,308.90
2019-04-03T11:06:50.708Z,307.85
2019-04-03T11:07:50.682Z,310.06
2019-04-03T11:08:50.994Z,307.73
2019-04-03T11:09:50.657Z,309.78
2019-04-03T11:10:50.734Z,308.61
2019-04-03T11:11:50.660Z,310.58
2019-04-03T11:12:50.973Z,309.72
2019-04-03T11:13:50.901Z,309.61
2019-04-03T11:14:50.599Z,309.64
2019-04-03T11:15:50.585Z,311.79
2019-04-03T11:16:50.598Z,309.67
2019-04-03T11:17:50.548Z,311.44
2019-04-03T11:18:58.494Z,309.22
2019-04-03T11:19:51.671Z,310.14
2019-04-03T11:20:50.529Z,312.48
2019-04-03T11:21:50.888Z,311.18
2019-04-03T11:22:50.722Z,310.26
2019-04-03T11:23:50.533Z,310.48
2019-04-03T11:24:50.877Z,310.28
2019-04-03T11:25:50.474Z,311.89
2019-04-03T11:26:51.780Z,311.36
2019-04-03T11:27:50.716Z,310.65
2019-04-03T11:28:50.464Z,308.57
2019-04-03T11:29:50.528Z,307.89
2019-04-03T11:30:52.816Z,309.46
2019-04-03T11:31:50.394Z,311.14
2019-04-03T11:32:50.477Z,309.68
2019-04-03T11:33:51.480Z,310.25
2019-04-03T11:34:50.376Z,311.05
2019-04-03T11:35:52.316Z,311.37
2019-04-03T11:36:50.431Z,309.71
2019-04-03T11:37:50.593Z,309.58
2019-04-03T11:38:50.344Z,311.23
2019-04-03T11:40:02.023Z,305.43
2019-04-03T11:40:51.646Z,310.82
2019-04-03T11:41:50.294Z,305.56
2019-04-03T11:42:50.344Z,310.18
2019-04-03T11:43:50.288Z,308.56
2019-04-03T11:44:50.346Z,309.85
2019-04-03T11:45:50.243Z,309.64
2019-04-03T11:46:50.233Z,311.42
2019-04-03T11:47:50.246Z,310.14
2019-04-03T11:48:50.208Z,309.01
2019-04-03T11:49:52.377Z,307.82
2019-04-03T11:50:50.183Z,310.86
2019-04-03T11:51:50.181Z,312.76
2019-04-03T11:52:52.064Z,311.72
2019-04-03T11:53:50.165Z,313.13
2019-04-03T11:54:52.333Z,311.68
2019-04-03T11:55:50.135Z,312.25
2019-04-03T11:56:50.143Z,310.29
2019-04-03T11:57:50.146Z,305.13
2019-04-03T11:58:52.071Z,310.50
2019-04-03T11:59:50.207Z,308.56
2019-04-03T12:00:50.252Z,308.97
2019-04-03T12:01:50.067Z,310.85
2019-04-03T12:02:50.103Z,310.86
2019-04-03T12:03:51.471Z,305.37
2019-04-03T12:04:50.135Z,311.08
2019-04-03T12:05:50.338Z,310.63
2019-04-03T12:06:51.980Z,309.67
2019-04-03T12:07:50.140Z,311.03
2019-04-03T12:08:50.320Z,309.45
2019-04-03T12:09:49.980Z,310.43
2019-04-03T12:10:49.981Z,311.07
2019-04-03T12:11:50.194Z,304.02
2019-04-03T12:12:50.251Z,309.48
2019-04-03T12:13:50.355Z,303.82
2019-04-03T12:14:50.223Z,311.80
2019-04-03T12:15:52.147Z,303.63
2019-04-03T12:16:49.932Z,311.52
2019-04-03T12:17:49.963Z,304.35
2019-04-03T12:18:49.913Z,309.55
2019-04-03T12:19:49.890Z,303.59
2019-04-03T12:20:50.417Z,307.47
2019-04-03T12:21:50.863Z,303.23
2019-04-03T12:22:49.855Z,307.64
2019-04-03T12:23:49.839Z,308.55
2019-04-03T12:24:49.831Z,310.67
2019-04-03T12:25:50.150Z,308.79
2019-04-03T12:26:51.736Z,305.58
2019-04-03T12:27:49.998Z,300.90
2019-04-03T12:28:50.171Z,309.62